In Rescue
 
Open Full Screen Window  High Contrast Mode
Wind Gusting 00 knots
07
February 02, 2023 8:15 PM EST
Weather Information
Wind Direction
  240 °
Wind Speed
  07 kt (8 mph)
Wind Gust
  00 kt (0 mph)
Altimeter
30.14 in
Visibility
10 SM
Temperature
00° C
32° F
Dewpoint
-04° C
25° F
Humidity
75%
1hr Rain Fall
00.00 in.
24hr Rain Fall
00.02 in.
Sky Condition
Clear
VFR

METAR KSYM 030115Z AUTO 24007KT 10SM CLR 00/M04 A3014 RMK AO2

FAA Disclaimer: The data displayed is for advisory purposes only and is not to be used for flight planning or operations.